Time;durP1;ratioP1;P1;durP2;ratioP2;P2;SDS_P1;SDS_P2;PMS_P1;PMS_P2;Temp;Humidity;BMP_temperature;BMP_pressure;BME280_temperature;BME280_humidity;BME280_pressure;Samples;Min_cycle;Max_cycle;Signal;HPM_P1;HPM_P2
2022/04/13 00:01:15;;;;;;;2.05;0.90;;;10.50;30.80;;;;;;5104410;28;34000;-76
2022/04/13 00:03:42;;;;;;;2.45;1.15;;;10.40;30.80;;;;;;5086186;28;33990;-76
2022/04/13 00:06:09;;;;;;;4.03;1.02;;;10.40;30.90;;;;;;5085816;28;35793;-76
2022/04/13 00:08:35;;;;;;;2.78;1.00;;;10.30;30.90;;;;;;5085745;28;34255;-76
2022/04/13 00:11:01;;;;;;;3.92;1.17;;;10.30;31.60;;;;;;5086120;28;34178;-76
2022/04/13 00:13:28;;;;;;;2.55;1.10;;;10.30;31.10;;;;;;5085999;28;34414;-77
2022/04/13 00:15:54;;;;;;;1.30;1.00;;;10.20;31.30;;;;;;5085711;28;35604;-76
2022/04/13 00:18:19;;;;;;;3.60;1.20;;;10.20;31.40;;;;;;5068631;28;34040;-76
2022/04/13 00:20:46;;;;;;;1.20;1.10;;;10.20;31.40;;;;;;5085912;28;34092;-76
2022/04/13 00:23:12;;;;;;;2.80;1.30;;;10.10;31.60;;;;;;5121188;27;34141;-76
2022/04/13 00:25:39;;;;;;;1.27;0.90;;;10.10;31.90;;;;;;5116647;27;35191;-76
2022/04/13 00:28:06;;;;;;;2.03;1.10;;;10.10;31.90;;;;;;5103816;28;34346;-76
2022/04/13 00:30:32;;;;;;;2.80;1.35;;;10.10;31.90;;;;;;5086259;28;34125;-76
2022/04/13 00:32:58;;;;;;;2.53;1.20;;;10.10;31.80;;;;;;5106185;28;34554;-76
2022/04/13 00:35:24;;;;;;;3.05;1.20;;;10.10;32.00;;;;;;5088650;28;35506;-77
2022/04/13 00:37:50;;;;;;;9.27;1.13;;;10.00;32.10;;;;;;5081475;28;34146;-76
2022/04/13 00:40:17;;;;;;;1.48;1.10;;;10.00;32.20;;;;;;5072445;28;34102;-76
2022/04/13 00:42:42;;;;;;;3.55;1.38;;;10.00;32.30;;;;;;5089321;28;34207;-76
2022/04/13 00:45:09;;;;;;;3.83;1.38;;;10.00;32.10;;;;;;5089178;28;34369;-76
2022/04/13 00:47:40;;;;;;;1.42;1.13;;;10.00;32.20;;;;;;5106990;28;34135;-76
2022/04/13 00:50:08;;;;;;;1.88;1.20;;;10.00;33.20;;;;;;5072791;28;34006;-76
2022/04/13 00:52:36;;;;;;;1.60;0.88;;;9.90;32.50;;;;;;5099508;27;34115;-76
2022/04/13 00:55:06;;;;;;;1.08;0.95;;;9.90;32.50;;;;;;5092655;27;35526;-76
2022/04/13 00:57:37;;;;;;;3.70;1.20;;;9.80;32.60;;;;;;5109419;27;34151;-76
2022/04/13 01:00:05;;;;;;;1.67;1.10;;;9.80;32.60;;;;;;5109397;27;34217;-76
2022/04/13 01:02:32;;;;;;;3.35;1.52;;;9.80;33.00;;;;;;5127890;27;34454;-76
2022/04/13 01:05:02;;;;;;;2.67;1.45;;;9.80;32.70;;;;;;5092239;27;35537;-77
2022/04/13 01:07:30;;;;;;;2.22;1.10;;;9.70;33.30;;;;;;5092148;27;34006;-76
2022/04/13 01:09:57;;;;;;;2.33;1.25;;;9.80;32.90;;;;;;5109219;27;34160;-76
2022/04/13 01:12:23;;;;;;;1.27;1.13;;;9.70;32.90;;;;;;5109001;27;34530;-76
2022/04/13 01:14:49;;;;;;;2.90;1.20;;;9.70;32.80;;;;;;5091835;27;35609;-76
2022/04/13 01:17:15;;;;;;;1.23;1.10;;;9.70;32.80;;;;;;5083902;28;34143;-76
2022/04/13 01:19:41;;;;;;;1.00;1.00;;;9.70;33.00;;;;;;5055133;28;34252;-76
2022/04/13 01:22:23;;;;;;;2.50;1.40;;;9.70;33.10;;;;;;5105823;28;34326;-76
2022/04/13 01:24:49;;;;;;;2.50;1.20;;;9.70;35.50;;;;;;5088220;28;35612;-76
2022/04/13 01:27:17;;;;;;;0.93;0.93;;;9.60;33.30;;;;;;5088498;27;34274;-77
2022/04/13 01:29:44;;;;;;;1.23;1.00;;;9.60;33.60;;;;;;5106676;27;34145;-77
2022/04/13 01:32:11;;;;;;;4.25;1.20;;;9.60;33.70;;;;;;5092052;27;34111;-76
2022/04/13 01:34:45;;;;;;;1.83;1.23;;;9.60;33.90;;;;;;5126746;27;34896;-77
2022/04/13 01:37:11;;;;;;;2.35;1.05;;;9.60;33.70;;;;;;5108705;27;33955;-76
2022/04/13 01:39:37;;;;;;;1.52;0.90;;;9.60;33.60;;;;;;5108847;27;33984;-77
2022/04/13 01:42:03;;;;;;;1.00;0.90;;;9.60;33.80;;;;;;5108675;27;34279;-76
2022/04/13 01:44:29;;;;;;;1.10;1.00;;;9.70;33.80;;;;;;5126410;27;35202;-76
2022/04/13 01:46:55;;;;;;;2.13;1.20;;;9.60;33.70;;;;;;5126847;27;34263;-76
2022/04/13 01:49:21;;;;;;;1.10;1.02;;;9.70;34.20;;;;;;5109130;27;34237;-76
2022/04/13 01:51:47;;;;;;;2.35;1.00;;;9.70;33.80;;;;;;5091734;27;34102;-76
2022/04/13 01:54:13;;;;;;;3.97;0.77;;;9.70;34.00;;;;;;5108238;27;35078;-76
2022/04/13 01:56:39;;;;;;;1.63;1.08;;;9.60;33.90;;;;;;5074572;27;34123;-76
2022/04/13 01:59:05;;;;;;;1.27;1.10;;;9.60;34.00;;;;;;5108054;27;34550;-76
2022/04/13 02:01:31;;;;;;;1.27;1.15;;;9.60;34.00;;;;;;5108606;27;34199;-76
2022/04/13 02:03:57;;;;;;;3.75;0.88;;;9.60;34.00;;;;;;5107925;27;35719;-77
2022/04/13 02:06:23;;;;;;;2.15;1.02;;;9.60;34.10;;;;;;5108027;27;34149;-76
2022/04/13 02:08:49;;;;;;;1.10;1.00;;;9.60;34.10;;;;;;5074421;27;34342;-76
2022/04/13 02:11:15;;;;;;;2.55;1.05;;;9.60;34.00;;;;;;5090987;27;34262;-76
2022/04/13 02:13:41;;;;;;;1.85;1.30;;;9.60;34.20;;;;;;5126597;27;34147;-76
2022/04/13 02:16:08;;;;;;;1.70;1.08;;;9.60;34.20;;;;;;5091384;27;34160;-76
2022/04/13 02:18:34;;;;;;;1.25;1.05;;;9.60;34.30;;;;;;5126049;27;34142;-76
2022/04/13 02:21:00;;;;;;;1.20;1.10;;;9.50;34.10;;;;;;5126466;27;33999;-76
2022/04/13 02:23:26;;;;;;;1.58;1.10;;;9.50;34.30;;;;;;5126177;27;34942;-76
2022/04/13 02:25:52;;;;;;;1.90;1.15;;;9.50;34.30;;;;;;5126433;27;34116;-76
2022/04/13 02:28:17;;;;;;;1.30;1.20;;;9.50;34.30;;;;;;5126164;27;34314;-76
2022/04/13 02:30:43;;;;;;;3.00;1.20;;;9.50;34.50;;;;;;5091052;27;34164;-77
2022/04/13 02:33:09;;;;;;;1.33;0.90;;;9.50;34.40;;;;;;5088061;28;34517;-76
2022/04/13 02:35:35;;;;;;;4.47;1.17;;;9.50;34.60;;;;;;5105366;28;34144;-76
2022/04/13 02:38:01;;;;;;;5.07;1.27;;;9.50;34.60;;;;;;5073874;27;34183;-76
2022/04/13 02:40:27;;;;;;;1.75;1.10;;;9.50;34.60;;;;;;5090738;27;34531;-76
2022/04/13 02:42:53;;;;;;;1.35;1.23;;;9.40;34.60;;;;;;5090485;27;35873;-76
2022/04/13 02:45:19;;;;;;;2.05;1.15;;;9.40;34.60;;;;;;5107338;27;34085;-76
2022/04/13 02:47:45;;;;;;;2.25;1.10;;;9.40;34.60;;;;;;5097132;28;34048;-76
2022/04/13 02:50:11;;;;;;;1.20;1.00;;;9.40;34.60;;;;;;5087407;28;34072;-76
2022/04/13 02:52:37;;;;;;;1.83;1.20;;;9.40;34.80;;;;;;5097937;27;35770;-76
2022/04/13 02:55:03;;;;;;;2.67;1.40;;;9.40;34.80;;;;;;5090050;27;34404;-76
2022/04/13 02:57:29;;;;;;;2.67;0.95;;;9.30;35.10;;;;;;5090250;27;34144;-76
2022/04/13 02:59:55;;;;;;;1.05;0.82;;;9.30;35.10;;;;;;5090453;27;34603;-76
2022/04/13 03:02:21;;;;;;;1.20;1.10;;;9.30;35.10;;;;;;5102077;28;36457;-76
2022/04/13 03:04:47;;;;;;;1.17;1.08;;;9.20;35.10;;;;;;5053595;28;34158;-76
2022/04/13 03:07:16;;;;;;;2.67;1.10;;;9.20;35.20;;;;;;5087668;27;34059;-76
2022/04/13 03:09:41;;;;;;;2.00;1.10;;;9.20;35.30;;;;;;5090936;27;34520;-76
2022/04/13 03:12:10;;;;;;;1.75;0.98;;;9.20;35.30;;;;;;5090248;27;35597;-76
2022/04/13 03:14:38;;;;;;;1.00;0.90;;;9.10;35.50;;;;;;5125741;27;34399;-76
2022/04/13 03:17:04;;;;;;;2.10;1.08;;;9.10;35.50;;;;;;5107145;27;34125;-76
2022/04/13 03:19:31;;;;;;;1.90;1.10;;;9.10;35.60;;;;;;5125108;27;34094;-77
2022/04/13 03:21:57;;;;;;;1.05;0.95;;;9.10;35.70;;;;;;5107146;27;35601;-76
2022/04/13 03:24:24;;;;;;;1.15;1.00;;;9.00;35.70;;;;;;5106880;27;34187;-76
2022/04/13 03:26:51;;;;;;;2.75;1.10;;;9.00;36.10;;;;;;5106957;27;34064;-76
2022/04/13 03:29:17;;;;;;;3.05;0.90;;;9.00;36.00;;;;;;5107486;27;34273;-77
2022/04/13 03:31:43;;;;;;;1.88;1.10;;;9.00;36.00;;;;;;5106549;27;35964;-76
2022/04/13 03:34:10;;;;;;;1.10;1.00;;;8.90;36.00;;;;;;5106459;27;34025;-76
2022/04/13 03:36:43;;;;;;;1.92;1.00;;;9.00;36.00;;;;;;5106452;27;34005;-76
2022/04/13 03:39:09;;;;;;;1.02;0.73;;;8.90;35.90;;;;;;5090402;27;34113;-76
2022/04/13 03:41:36;;;;;;;1.27;1.00;;;8.90;36.20;;;;;;5072233;27;36572;-76
2022/04/13 03:44:03;;;;;;;4.03;0.95;;;8.90;36.20;;;;;;5106776;27;34115;-76
2022/04/13 03:46:29;;;;;;;0.90;0.90;;;8.80;36.00;;;;;;5124825;27;34131;-76
2022/04/13 03:48:55;;;;;;;2.65;1.30;;;8.80;36.10;;;;;;5106743;27;34380;-76
2022/04/13 03:51:21;;;;;;;2.45;0.98;;;8.80;36.10;;;;;;5089341;27;36658;-76
2022/04/13 03:53:47;;;;;;;1.25;1.08;;;8.70;36.30;;;;;;5106454;27;34351;-76
2022/04/13 03:56:13;;;;;;;1.40;0.95;;;8.70;36.50;;;;;;5106419;27;34099;-76
2022/04/13 03:58:40;;;;;;;1.67;1.00;;;8.60;36.50;;;;;;5106520;27;34467;-76
2022/04/13 04:01:07;;;;;;;6.03;1.30;;;8.60;36.60;;;;;;5106554;27;35675;-76
2022/04/13 04:03:35;;;;;;;3.35;1.27;;;8.50;36.70;;;;;;5106489;27;34222;-76
2022/04/13 04:06:01;;;;;;;1.52;1.10;;;8.50;36.90;;;;;;5106213;27;34270;-76
2022/04/13 04:08:28;;;;;;;0.65;0.65;;;8.50;36.80;;;;;;5106241;27;34512;-76
2022/04/13 04:10:54;;;;;;;6.63;1.13;;;8.40;36.80;;;;;;5124561;27;35351;-76
2022/04/13 04:13:20;;;;;;;1.05;0.90;;;8.40;36.80;;;;;;5089076;27;34140;-76
2022/04/13 04:15:47;;;;;;;1.40;0.98;;;8.40;36.80;;;;;;5106477;27;34283;-76
2022/04/13 04:18:13;;;;;;;3.42;1.17;;;8.40;36.80;;;;;;5124843;27;33991;-76
2022/04/13 04:20:39;;;;;;;2.08;1.05;;;8.30;37.00;;;;;;5124418;27;34185;-76
2022/04/13 04:23:04;;;;;;;2.40;0.93;;;8.30;37.10;;;;;;5106175;27;34376;-76
2022/04/13 04:25:30;;;;;;;1.88;1.15;;;8.20;37.10;;;;;;5088831;27;34230;-76
2022/04/13 04:27:56;;;;;;;1.25;0.93;;;8.20;37.20;;;;;;5089397;27;34511;-76
2022/04/13 04:30:22;;;;;;;2.67;1.00;;;8.20;37.30;;;;;;5088878;27;35440;-76
2022/04/13 04:32:48;;;;;;;1.00;0.90;;;8.10;37.50;;;;;;5124346;27;34056;-76
2022/04/13 04:35:14;;;;;;;1.48;0.95;;;8.00;37.50;;;;;;5088997;27;34154;-77
2022/04/13 04:37:40;;;;;;;1.80;1.00;;;8.00;37.50;;;;;;5106177;27;34483;-76
2022/04/13 04:40:07;;;;;;;1.17;1.08;;;8.00;38.20;;;;;;5105556;27;36518;-76
2022/04/13 04:42:45;;;;;;;1.67;1.00;;;7.90;37.80;;;;;;5080809;28;34312;-76
2022/04/13 04:45:12;;;;;;;1.52;1.10;;;7.90;39.10;;;;;;5085522;28;34237;-76
2022/04/13 04:47:38;;;;;;;3.28;1.10;;;7.90;37.90;;;;;;5085715;28;34048;-76
2022/04/13 04:50:05;;;;;;;1.35;1.20;;;7.90;37.90;;;;;;5068464;28;35704;-76
2022/04/13 04:52:31;;;;;;;1.00;0.90;;;7.90;38.10;;;;;;5069117;28;34181;-76
2022/04/13 04:54:59;;;;;;;1.50;1.20;;;7.90;38.10;;;;;;5085546;28;34255;-76
2022/04/13 04:57:25;;;;;;;2.60;1.05;;;7.90;38.20;;;;;;5085313;28;34123;-76
2022/04/13 04:59:51;;;;;;;1.20;1.10;;;7.90;38.10;;;;;;5103075;28;34930;-76
2022/04/13 05:02:17;;;;;;;2.03;1.13;;;7.90;38.20;;;;;;5085807;28;34449;-76
2022/04/13 05:04:42;;;;;;;1.63;1.25;;;7.90;38.10;;;;;;5103695;27;34206;-76
2022/04/13 05:07:08;;;;;;;1.50;1.02;;;7.90;38.10;;;;;;5052212;28;34082;-76
2022/04/13 05:09:34;;;;;;;1.40;1.30;;;7.90;38.10;;;;;;5051214;28;36185;-76
2022/04/13 05:12:00;;;;;;;1.60;1.17;;;7.90;38.30;;;;;;5116664;27;34216;-76
2022/04/13 05:14:26;;;;;;;1.25;1.00;;;7.80;38.20;;;;;;5068207;28;34154;-76
2022/04/13 05:16:52;;;;;;;5.38;1.23;;;7.80;38.20;;;;;;5053166;28;34274;-77
2022/04/13 05:19:18;;;;;;;1.90;1.20;;;7.90;38.30;;;;;;5071365;28;35887;-76
2022/04/13 05:21:44;;;;;;;2.45;1.20;;;8.00;38.40;;;;;;5088946;28;34116;-76
2022/04/13 05:24:10;;;;;;;1.45;1.15;;;8.00;38.20;;;;;;5088863;28;34305;-76
2022/04/13 05:26:36;;;;;;;1.10;0.98;;;8.00;38.20;;;;;;5098179;27;34081;-76
2022/04/13 05:29:02;;;;;;;6.70;1.30;;;8.00;38.20;;;;;;5127198;27;34273;-77
2022/04/13 05:31:28;;;;;;;2.72;1.10;;;8.10;38.10;;;;;;5109068;27;34327;-77
2022/04/13 05:33:55;;;;;;;2.90;1.30;;;8.10;38.10;;;;;;5108657;27;34196;-76
2022/04/13 05:36:21;;;;;;;6.53;1.30;;;8.20;38.10;;;;;;5108864;27;34080;-76
2022/04/13 05:38:47;;;;;;;1.30;1.10;;;8.20;38.30;;;;;;5126887;27;34293;-76
2022/04/13 05:41:13;;;;;;;2.72;1.25;;;8.30;38.30;;;;;;5109006;27;34240;-76
2022/04/13 05:43:39;;;;;;;3.58;1.23;;;8.30;38.30;;;;;;5108348;27;34288;-76
2022/04/13 05:46:05;;;;;;;2.42;1.30;;;8.30;38.20;;;;;;5127021;27;34529;-77
2022/04/13 05:48:31;;;;;;;1.75;1.10;;;8.40;38.20;;;;;;5126090;27;34160;-76
2022/04/13 05:50:59;;;;;;;4.32;1.35;;;8.40;38.10;;;;;;5091802;27;34158;-76
2022/04/13 05:53:25;;;;;;;1.65;1.40;;;8.50;38.10;;;;;;5108124;27;33962;-77
2022/04/13 05:55:55;;;;;;;3.67;1.15;;;8.60;38.10;;;;;;5108466;27;34337;-76
2022/04/13 05:58:24;;;;;;;3.35;1.40;;;8.60;38.20;;;;;;5108269;27;36565;-76
2022/04/13 06:00:50;;;;;;;2.70;1.23;;;8.70;38.40;;;;;;5074516;27;34129;-77
2022/04/13 06:03:17;;;;;;;2.20;1.20;;;8.70;38.10;;;;;;5108092;27;34112;-76
2022/04/13 06:05:44;;;;;;;2.95;1.60;;;8.80;38.10;;;;;;5109047;27;34018;-76
2022/04/13 06:08:10;;;;;;;1.92;1.38;;;8.90;38.00;;;;;;5108515;27;35879;-77
2022/04/13 06:10:36;;;;;;;3.50;1.42;;;9.00;37.80;;;;;;5091008;27;34223;-76
2022/04/13 06:13:02;;;;;;;2.00;1.15;;;9.20;37.70;;;;;;5087914;28;34265;-76
2022/04/13 06:15:29;;;;;;;3.85;1.50;;;9.40;37.50;;;;;;5088013;28;34152;-77
2022/04/13 06:17:55;;;;;;;3.00;1.40;;;9.70;37.20;;;;;;5087675;28;35529;-77
2022/04/13 06:20:22;;;;;;;2.45;1.35;;;10.10;37.00;;;;;;5087353;28;34259;-77
2022/04/13 06:22:48;;;;;;;4.03;1.65;;;10.40;36.30;;;;;;5087738;28;34413;-77
2022/04/13 06:25:14;;;;;;;2.67;1.50;;;10.60;35.60;;;;;;5054367;28;34450;-77
2022/04/13 06:27:41;;;;;;;2.30;1.52;;;10.90;35.10;;;;;;5087212;28;36253;-77
2022/04/13 06:30:08;;;;;;;1.73;1.45;;;11.10;34.90;;;;;;5105551;28;34289;-77
2022/04/13 06:32:37;;;;;;;3.78;1.40;;;11.30;34.60;;;;;;5087737;28;34071;-77
2022/04/13 06:35:04;;;;;;;2.63;1.30;;;11.60;34.40;;;;;;5105564;28;34178;-77
2022/04/13 06:37:30;;;;;;;1.75;1.48;;;12.00;33.90;;;;;;5087376;28;34219;-77
2022/04/13 06:39:56;;;;;;;3.08;1.33;;;12.40;33.50;;;;;;5105293;28;34137;-77
2022/04/13 06:42:23;;;;;;;2.20;1.30;;;12.70;32.80;;;;;;5087433;28;34256;-77
2022/04/13 06:44:50;;;;;;;3.15;1.45;;;13.00;32.00;;;;;;5106317;28;34116;-77
2022/04/13 06:47:16;;;;;;;4.72;1.65;;;13.20;31.50;;;;;;5088021;28;35634;-77
2022/04/13 06:49:42;;;;;;;3.50;1.75;;;13.40;31.10;;;;;;5106986;28;34468;-78
2022/04/13 06:52:08;;;;;;;1.90;1.40;;;13.50;30.90;;;;;;5088280;28;34095;-77
2022/04/13 06:54:34;;;;;;;5.22;1.40;;;13.70;30.80;;;;;;5071629;28;34304;-78
2022/04/13 06:57:00;;;;;;;3.30;1.50;;;13.80;30.60;;;;;;5071455;28;36186;-78
2022/04/13 06:59:26;;;;;;;7.18;1.73;;;14.00;30.60;;;;;;5115704;27;34474;-77
2022/04/13 07:01:51;;;;;;;6.95;1.40;;;14.10;30.60;;;;;;5109357;27;34291;-77
2022/04/13 07:04:17;;;;;;;7.47;1.73;;;14.20;30.40;;;;;;5075152;27;34231;-77
2022/04/13 07:06:43;;;;;;;5.40;1.90;;;14.10;30.40;;;;;;5109189;27;35513;-77
2022/04/13 07:09:10;;;;;;;5.55;1.50;;;14.10;30.60;;;;;;5074109;27;34180;-77
2022/04/13 07:11:36;;;;;;;3.63;1.88;;;14.10;30.70;;;;;;5103554;28;34182;-77
2022/04/13 07:14:02;;;;;;;2.72;1.40;;;14.00;30.70;;;;;;5106348;28;34229;-78
2022/04/13 07:16:28;;;;;;;3.17;1.60;;;14.00;31.00;;;;;;5106896;27;35603;-77
2022/04/13 07:18:54;;;;;;;3.22;1.50;;;13.90;31.10;;;;;;5107825;27;34665;-78
2022/04/13 07:21:20;;;;;;;1.48;1.38;;;13.90;31.20;;;;;;5107335;27;34304;-77
2022/04/13 07:23:46;;;;;;;12.13;1.52;;;13.80;31.30;;;;;;5107480;27;34218;-77
2022/04/13 07:26:12;;;;;;;3.55;1.88;;;13.70;31.50;;;;;;5090429;27;35746;-77
2022/04/13 07:28:38;;;;;;;5.50;2.10;;;13.80;31.70;;;;;;5107608;27;34277;-77
2022/04/13 07:31:05;;;;;;;1.83;1.63;;;13.90;31.60;;;;;;5107380;27;34140;-76
2022/04/13 07:33:31;;;;;;;2.60;1.50;;;14.00;31.20;;;;;;5125131;27;34067;-77
2022/04/13 07:35:58;;;;;;;4.68;1.80;;;14.20;30.90;;;;;;5106350;27;35688;-77
2022/04/13 07:38:24;;;;;;;1.52;1.42;;;14.40;30.70;;;;;;5089847;27;34241;-77
2022/04/13 07:40:51;;;;;;;7.07;1.95;;;14.60;30.50;;;;;;5124762;27;34443;-78
2022/04/13 07:43:16;;;;;;;3.92;1.60;;;14.80;30.20;;;;;;5082583;28;34322;-78
2022/04/13 07:45:43;;;;;;;1.80;1.52;;;15.10;30.10;;;;;;5086914;28;36475;-78
2022/04/13 07:48:09;;;;;;;5.57;2.10;;;15.30;29.80;;;;;;5102501;27;34315;-78
2022/04/13 07:50:35;;;;;;;4.75;1.95;;;15.70;29.70;;;;;;5106687;27;34086;-77
2022/04/13 07:53:01;;;;;;;6.93;1.70;;;16.00;29.10;;;;;;5106552;27;34478;-77
2022/04/13 07:55:27;;;;;;;2.38;1.52;;;16.10;28.60;;;;;;5124209;27;34192;-76
2022/04/13 07:57:53;;;;;;;5.00;1.80;;;16.40;28.30;;;;;;5106784;27;34031;-77
2022/04/13 08:00:19;;;;;;;5.00;1.83;;;16.60;28.10;;;;;;5089295;27;34399;-76
2022/04/13 08:02:45;;;;;;;3.17;1.92;;;16.90;28.10;;;;;;5106668;27;34197;-76
2022/04/13 08:05:12;;;;;;;4.38;1.83;;;17.10;27.70;;;;;;5121110;27;34862;-76
2022/04/13 08:07:39;;;;;;;4.22;1.73;;;17.30;27.30;;;;;;5084142;27;34152;-77
2022/04/13 08:10:06;;;;;;;3.00;1.80;;;17.50;26.90;;;;;;5124332;27;34038;-77
2022/04/13 08:12:32;;;;;;;6.10;2.05;;;17.60;26.40;;;;;;5072446;27;34574;-76
2022/04/13 08:14:59;;;;;;;2.15;1.63;;;17.80;26.20;;;;;;5104815;27;35809;-76
2022/04/13 08:17:26;;;;;;;3.28;2.03;;;17.90;25.40;;;;;;5103642;27;34212;-77
2022/04/13 08:19:53;;;;;;;12.38;2.65;;;18.20;25.60;;;;;;5089409;27;34235;-76
2022/04/13 08:22:27;;;;;;;9.65;2.10;;;18.40;25.40;;;;;;5085611;28;34121;-77
2022/04/13 08:24:53;;;;;;;9.30;2.38;;;18.70;23.00;;;;;;5085413;27;36462;-77
2022/04/13 08:27:20;;;;;;;4.18;2.03;;;18.90;24.10;;;;;;5106031;27;34139;-77
2022/04/13 08:29:46;;;;;;;4.88;2.38;;;19.20;23.90;;;;;;5085572;27;34155;-77
2022/04/13 08:32:17;;;;;;;6.97;2.42;;;19.40;23.40;;;;;;5097391;27;34273;-76
2022/04/13 08:34:43;;;;;;;7.32;2.03;;;19.80;21.50;;;;;;5088814;27;35630;-77
2022/04/13 08:37:10;;;;;;;3.50;2.00;;;20.10;22.70;;;;;;5124645;27;34438;-77
2022/04/13 08:39:37;;;;;;;7.82;2.00;;;20.40;21.90;;;;;;5108645;27;34323;-76
2022/04/13 08:42:10;;;;;;;11.13;2.03;;;20.70;21.40;;;;;;5093634;27;34102;-76
2022/04/13 08:44:53;;;;;;;5.28;1.83;;;21.00;19.70;;;;;;5088460;27;36357;-76
2022/04/13 08:47:21;;;;;;;5.55;1.90;;;21.10;18.00;;;;;;5090184;27;34286;-76
2022/04/13 08:49:51;;;;;;;4.78;2.13;;;21.00;19.90;;;;;;5088864;27;34305;-77
2022/04/13 08:52:28;;;;;;;4.00;1.63;;;21.00;19.80;;;;;;5101816;27;34516;-77
2022/04/13 08:55:14;;;;;;;4.63;2.30;;;21.00;19.00;;;;;;5076224;27;36717;-76
2022/04/13 08:57:46;;;;;;;3.97;1.98;;;21.00;18.90;;;;;;5092938;27;33973;-76
2022/04/13 09:00:18;;;;;;;2.92;2.38;;;21.00;19.70;;;;;;5101850;27;34342;-77
2022/04/13 09:03:14;;;;;;;5.35;2.10;;;20.80;20.10;;;;;;5089164;28;34195;-77
2022/04/13 09:05:42;;;;;;;6.13;1.98;;;20.70;19.50;;;;;;5109240;28;34921;-78
2022/04/13 09:08:27;;;;;;;5.47;2.08;;;20.70;21.20;;;;;;5087007;28;34284;-78
2022/04/13 09:10:54;;;;;;;9.38;1.83;;;20.70;20.50;;;;;;5108744;27;34341;-78
2022/04/13 09:13:24;;;;;;;5.20;1.90;;;20.70;21.50;;;;;;5089155;28;34090;-78
2022/04/13 09:15:51;;;;;;;3.42;2.00;;;20.70;21.20;;;;;;5109863;27;35654;-77
2022/04/13 09:18:17;;;;;;;5.47;2.13;;;20.80;21.30;;;;;;5110107;27;34410;-77
2022/04/13 09:20:43;;;;;;;3.53;2.10;;;20.80;21.20;;;;;;5092377;27;34148;-77
2022/04/13 09:23:12;;;;;;;6.57;2.22;;;20.80;21.10;;;;;;5092670;27;34427;-77
2022/04/13 09:25:40;;;;;;;8.75;2.20;;;20.80;21.20;;;;;;5096918;28;35853;-76
2022/04/13 09:28:06;;;;;;;3.95;2.00;;;20.80;21.10;;;;;;5103720;27;34281;-77
2022/04/13 09:30:33;;;;;;;5.13;2.28;;;20.80;21.20;;;;;;5109390;27;34317;-78
2022/04/13 09:33:02;;;;;;;6.13;2.08;;;20.80;20.70;;;;;;5092605;27;34179;-79
2022/04/13 09:35:32;;;;;;;3.75;2.30;;;20.80;20.80;;;;;;5093308;27;34214;-78
2022/04/13 09:38:02;;;;;;;4.90;1.63;;;21.00;20.90;;;;;;5088951;28;34312;-79
2022/04/13 09:40:39;;;;;;;6.65;2.40;;;21.40;20.20;;;;;;5088422;28;34292;-77
2022/04/13 09:43:10;;;;;;;3.22;1.85;;;21.70;20.40;;;;;;5088880;28;34131;-78
2022/04/13 09:45:42;;;;;;;3.63;1.80;;;22.00;19.60;;;;;;5071401;28;35725;-78
2022/04/13 09:48:11;;;;;;;4.82;1.95;;;22.40;18.80;;;;;;5072767;28;34058;-79
2022/04/13 09:50:37;;;;;;;3.95;2.00;;;22.70;18.90;;;;;;5106762;28;34227;-78
2022/04/13 09:53:05;;;;;;;4.20;1.60;;;22.80;18.60;;;;;;5090889;27;34091;-78
2022/04/13 09:55:38;;;;;;;10.25;1.92;;;23.00;18.50;;;;;;5090988;27;36652;-78
2022/04/13 09:58:11;;;;;;;6.65;1.67;;;23.20;16.90;;;;;;5092441;27;34071;-78
2022/04/13 10:00:38;;;;;;;6.40;1.70;;;23.30;16.60;;;;;;5088318;28;34049;-79
2022/04/13 10:03:08;;;;;;;4.97;1.33;;;23.30;17.60;;;;;;5085903;27;35219;-77
2022/04/13 10:05:34;;;;;;;3.92;1.38;;;23.50;16.20;;;;;;5110358;27;35619;-78
2022/04/13 10:08:04;;;;;;;4.00;1.55;;;23.90;17.20;;;;;;5093874;27;34141;-79
2022/04/13 10:10:30;;;;;;;4.47;1.20;;;24.30;16.70;;;;;;5094038;27;34501;-79
2022/04/13 10:12:56;;;;;;;3.63;1.27;;;24.60;16.30;;;;;;5129378;27;34365;-78
2022/04/13 10:15:22;;;;;;;1.75;1.30;;;24.60;15.80;;;;;;5127568;27;34314;-79
2022/04/13 10:17:48;;;;;;;2.03;1.02;;;24.50;15.40;;;;;;5108114;27;34175;-79
2022/04/13 10:20:14;;;;;;;2.45;1.27;;;24.30;15.20;;;;;;5093744;27;34294;-79
2022/04/13 10:22:57;;;;;;;3.33;1.40;;;24.30;15.20;;;;;;5110747;27;34512;-78
2022/04/13 10:25:27;;;;;;;2.65;1.52;;;24.20;11.10;;;;;;5110940;27;35710;-79
2022/04/13 10:27:55;;;;;;;5.57;1.50;;;24.30;14.90;;;;;;5111836;27;34096;-78
2022/04/13 10:30:32;;;;;;;1.80;1.17;;;24.60;14.70;;;;;;5093751;27;34304;-78
2022/04/13 10:33:08;;;;;;;4.15;1.15;;;24.90;11.00;;;;;;5105396;27;34492;-78
2022/04/13 10:35:37;;;;;;;3.40;1.23;;;25.00;12.60;;;;;;5094039;27;36240;-79
2022/04/13 10:38:03;;;;;;;4.35;1.20;;;25.20;12.40;;;;;;5092738;27;34123;-78
2022/04/13 10:40:31;;;;;;;3.28;1.08;;;25.30;12.50;;;;;;5109820;27;34266;-78
2022/04/13 10:43:03;;;;;;;5.45;1.85;;;25.20;11.40;;;;;;5093607;27;34348;-79
2022/04/13 10:45:30;;;;;;;5.18;1.48;;;25.20;10.40;;;;;;5093856;27;35643;-79
2022/04/13 10:48:17;;;;;;;1.50;1.10;;;25.10;12.20;;;;;;5107059;27;34368;-79
2022/04/13 10:51:08;;;;;;;2.58;1.30;;;25.20;8.60;;;;;;5090716;27;34236;-78
2022/04/13 10:53:55;;;;;;;4.07;1.08;;;25.10;8.30;;;;;;5077535;27;34611;-79
2022/04/13 10:56:27;;;;;;;2.83;1.00;;;25.00;9.10;;;;;;5094410;27;36275;-79
2022/04/13 10:59:09;;;;;;;3.15;1.35;;;25.00;11.00;;;;;;5093702;27;34181;-79
2022/04/13 11:01:46;;;;;;;2.78;1.23;;;25.00;9.90;;;;;;5094166;27;34096;-78
2022/04/13 11:04:12;;;;;;;4.38;1.27;;;24.90;9.40;;;;;;5117833;27;34152;-79
2022/04/13 11:06:41;;;;;;;4.63;1.30;;;24.70;12.00;;;;;;5107600;28;34922;-77
2022/04/13 11:09:15;;;;;;;3.25;1.42;;;24.80;11.40;;;;;;5107477;27;34334;-77
2022/04/13 11:11:43;;;;;;;3.13;1.30;;;24.80;10.40;;;;;;5096138;27;34180;-78
2022/04/13 11:14:18;;;;;;;3.40;1.23;;;24.80;11.20;;;;;;5126579;27;34232;-78
2022/04/13 11:16:44;;;;;;;7.30;1.50;;;25.10;8.50;;;;;;5090640;27;35812;-77
2022/04/13 11:19:20;;;;;;;5.78;1.25;;;25.30;11.40;;;;;;5125901;27;34389;-77
2022/04/13 11:22:09;;;;;;;4.65;1.00;;;25.50;9.00;;;;;;5107499;27;34219;-77
2022/04/13 11:24:52;;;;;;;2.67;1.00;;;25.60;7.50;;;;;;5073712;28;34073;-77
2022/04/13 11:27:18;;;;;;;5.25;1.20;;;25.70;10.10;;;;;;5086819;28;35943;-78
2022/04/13 11:29:56;;;;;;;4.47;1.50;;;25.80;10.60;;;;;;5087901;28;34361;-78
2022/04/13 11:32:26;;;;;;;3.90;1.33;;;26.00;10.50;;;;;;5074842;27;34279;-77
2022/04/13 11:35:02;;;;;;;2.47;1.23;;;26.10;9.30;;;;;;5086650;27;34269;-77
2022/04/13 11:37:44;;;;;;;5.93;1.50;;;26.20;7.20;;;;;;5107006;27;35078;-78
2022/04/13 11:40:12;;;;;;;5.55;1.20;;;26.20;5.90;;;;;;5105971;27;34104;-77
2022/04/13 11:42:54;;;;;;;2.33;1.40;;;26.00;9.40;;;;;;5107097;27;34317;-76
2022/04/13 11:45:22;;;;;;;4.10;1.83;;;25.80;5.80;;;;;;5125717;27;34324;-79
2022/04/13 11:47:57;;;;;;;4.78;1.15;;;25.60;9.70;;;;;;5097503;27;34445;-78
2022/04/13 11:50:27;;;;;;;3.60;1.00;;;25.50;8.00;;;;;;5108369;27;34164;-78
2022/04/13 11:53:10;;;;;;;5.18;1.20;;;25.40;9.30;;;;;;5089920;27;34301;-78
2022/04/13 11:55:43;;;;;;;4.20;1.33;;;25.50;9.70;;;;;;5108535;27;34369;-78
2022/04/13 11:58:20;;;;;;;3.50;1.10;;;25.40;6.70;;;;;;5091011;27;35764;-79
2022/04/13 12:00:54;;;;;;;3.08;1.20;;;25.40;6.40;;;;;;5109501;27;34349;-78
2022/04/13 12:03:34;;;;;;;4.18;1.52;;;25.40;9.20;;;;;;5091940;27;34331;-79
2022/04/13 12:06:07;;;;;;;10.85;1.90;;;25.40;9.00;;;;;;5090094;27;34329;-78
2022/04/13 12:08:35;;;;;;;1.85;0.93;;;25.50;8.50;;;;;;5087113;27;36300;-79
2022/04/13 12:11:06;;;;;;;2.30;1.13;;;25.50;8.70;;;;;;5086289;27;34052;-77
2022/04/13 12:14:00;;;;;;;3.53;1.23;;;25.50;9.20;;;;;;5107382;27;34218;-78
2022/04/13 12:16:29;;;;;;;7.43;1.35;;;25.50;6.40;;;;;;5125457;27;34198;-77
2022/04/13 12:19:01;;;;;;;3.95;1.13;;;25.50;8.90;;;;;;5106122;27;35743;-76
2022/04/13 12:21:30;;;;;;;2.20;1.33;;;25.50;7.10;;;;;;5085063;28;34431;-77
2022/04/13 12:23:56;;;;;;;3.58;1.13;;;25.40;8.90;;;;;;5085831;28;34148;-77
2022/04/13 12:26:39;;;;;;;4.78;1.25;;;25.50;9.30;;;;;;5125416;27;33945;-77
2022/04/13 12:29:21;;;;;;;2.97;1.10;;;25.50;6.30;;;;;;5110018;27;34730;-77
2022/04/13 12:31:53;;;;;;;2.78;1.20;;;25.40;5.20;;;;;;5128292;27;34288;-77
2022/04/13 12:34:22;;;;;;;4.28;1.27;;;25.30;7.90;;;;;;5092245;27;34274;-77
2022/04/13 12:36:51;;;;;;;12.63;3.50;;;25.20;8.90;;;;;;5106590;28;34824;-78
2022/04/13 12:39:17;;;;;;;14.10;3.72;;;25.20;8.60;;;;;;5123076;27;34145;-78
2022/04/13 12:41:43;;;;;;;5.68;1.63;;;25.20;9.30;;;;;;5109983;27;34499;-77
2022/04/13 12:44:09;;;;;;;3.50;1.20;;;25.20;9.30;;;;;;5092828;27;34279;-77
2022/04/13 12:46:35;;;;;;;1.77;1.17;;;25.30;9.20;;;;;;5126613;27;34150;-77
2022/04/13 12:49:04;;;;;;;5.80;1.50;;;25.30;9.60;;;;;;5107154;28;34401;-77
2022/04/13 12:51:34;;;;;;;4.15;1.20;;;25.30;8.70;;;;;;5096314;27;34321;-77
2022/04/13 12:54:02;;;;;;;4.55;1.13;;;25.40;8.50;;;;;;5092559;27;34212;-77
2022/04/13 12:56:32;;;;;;;2.55;1.30;;;25.40;8.80;;;;;;5092417;27;34504;-77
2022/04/13 12:58:59;;;;;;;2.95;1.20;;;25.50;8.90;;;;;;5109012;27;35896;-77